Terminal Aerodrome Forecast
Issued by NWS

Home | Current Version | Previous Version | Text Only | Print | Product List | Glossary On
Versions: 1 2 3 4 5 6 7 8 9 10 11 12 13 14 15 16 17 18 19 20 21 22
000
FTUS46 KSEW 301100 AAB
TAFHQM
TAF AMD
KHQM 301159Z 3012/3112 VRB03KT 4SM -RA BR SCT007 OVC015
      TEMPO 3012/3014 1SM +RA BR BKN007 OVC015
     FM301400 19005KT 4SM -RA BR BKN007 OVC015
     FM301900 22010KT P6SM -SHRA BKN015 OVC030
     FM302300 23009KT P6SM BKN025 OVC060
     FM310600 24009KT P6SM BKN020 OVC040=

USA.gov is the U.S. government's official web portal to all federal, state and local government web resources and services.